Paw Paw, Illinois
Current Conditions -  °F | °C
As of 4:55 AM on Friday 31 Oct 2014 (Local Time) from KRPJ Reporting Station
Overcast Overcast  
Wind Chill: -2°   Ceiling: 4600
Heat Index:   Visibility: 10mi
Dew Point: -3°   Wind: 17mph
Humidity: 65%   Direction: 330°NNW
Pressure: 30.12"   Gusts: 30mph
Location:  41.69°N, 88.98°W
Report Text: KRPJ 310955Z AUTO 33015G26KT 10SM SCT039 BKN046 OVC065 03/M03 A3012 RMK AO2 T00301031
Loading
Personal Weather Stations






























Interactive Weather Map
Tropical Storm Tracking
New forecast layout! Learn more

10-Day Weather Forecast

Advertisements
Track Severe Weather on mobile